sensor_id;sensor_type;location;lat;lon;timestamp;temperature;humidity
79356;SHT31;68825;51.978;5.654;2023-07-13T00:01:17;20.2;59.1
79356;SHT31;68825;51.978;5.654;2023-07-13T00:03:46;20.2;60.5
79356;SHT31;68825;51.978;5.654;2023-07-13T00:06:14;20.2;60.4
79356;SHT31;68825;51.978;5.654;2023-07-13T00:08:43;20.1;58.7
79356;SHT31;68825;51.978;5.654;2023-07-13T00:11:13;20.1;59.1
79356;SHT31;68825;51.978;5.654;2023-07-13T00:13:44;20.1;60.0
79356;SHT31;68825;51.978;5.654;2023-07-13T00:16:13;20.1;58.5
79356;SHT31;68825;51.978;5.654;2023-07-13T00:18:42;20.1;59.6
79356;SHT31;68825;51.978;5.654;2023-07-13T00:21:11;20.0;59.5
79356;SHT31;68825;51.978;5.654;2023-07-13T00:23:41;20.0;59.4
79356;SHT31;68825;51.978;5.654;2023-07-13T00:26:11;20.0;59.0
79356;SHT31;68825;51.978;5.654;2023-07-13T00:28:40;20.0;58.9
79356;SHT31;68825;51.978;5.654;2023-07-13T00:31:11;19.9;59.2
79356;SHT31;68825;51.978;5.654;2023-07-13T00:33:40;19.9;59.5
79356;SHT31;68825;51.978;5.654;2023-07-13T00:36:10;19.9;60.0
79356;SHT31;68825;51.978;5.654;2023-07-13T00:38:39;19.8;59.4
79356;SHT31;68825;51.978;5.654;2023-07-13T00:41:08;19.8;59.8
79356;SHT31;68825;51.978;5.654;2023-07-13T00:43:37;19.8;61.2
79356;SHT31;68825;51.978;5.654;2023-07-13T00:46:39;19.8;61.1
79356;SHT31;68825;51.978;5.654;2023-07-13T00:49:10;19.7;60.6
79356;SHT31;68825;51.978;5.654;2023-07-13T00:51:44;19.7;60.4
79356;SHT31;68825;51.978;5.654;2023-07-13T00:54:19;19.7;60.9
79356;SHT31;68825;51.978;5.654;2023-07-13T00:56:51;19.6;60.1
79356;SHT31;68825;51.978;5.654;2023-07-13T00:59:21;19.6;60.5
79356;SHT31;68825;51.978;5.654;2023-07-13T01:01:51;19.6;61.2
79356;SHT31;68825;51.978;5.654;2023-07-13T01:04:20;19.6;60.1
79356;SHT31;68825;51.978;5.654;2023-07-13T01:06:48;19.6;60.1
79356;SHT31;68825;51.978;5.654;2023-07-13T01:09:18;19.5;60.4
79356;SHT31;68825;51.978;5.654;2023-07-13T01:11:48;19.5;60.4
79356;SHT31;68825;51.978;5.654;2023-07-13T01:14:19;19.5;61.3
79356;SHT31;68825;51.978;5.654;2023-07-13T01:16:48;19.5;60.7
79356;SHT31;68825;51.978;5.654;2023-07-13T01:19:29;19.5;60.2
79356;SHT31;68825;51.978;5.654;2023-07-13T01:22:02;19.4;60.9
79356;SHT31;68825;51.978;5.654;2023-07-13T01:24:35;19.4;61.4
79356;SHT31;68825;51.978;5.654;2023-07-13T01:27:06;19.4;60.9
79356;SHT31;68825;51.978;5.654;2023-07-13T01:29:40;19.4;61.0
79356;SHT31;68825;51.978;5.654;2023-07-13T01:32:12;19.4;60.6
79356;SHT31;68825;51.978;5.654;2023-07-13T01:34:41;19.3;61.5
79356;SHT31;68825;51.978;5.654;2023-07-13T01:37:12;19.3;61.3
79356;SHT31;68825;51.978;5.654;2023-07-13T01:39:41;19.3;61.0
79356;SHT31;68825;51.978;5.654;2023-07-13T01:42:09;19.3;60.8
79356;SHT31;68825;51.978;5.654;2023-07-13T01:44:38;19.3;61.8
79356;SHT31;68825;51.978;5.654;2023-07-13T01:47:08;19.2;61.2
79356;SHT31;68825;51.978;5.654;2023-07-13T01:49:37;19.2;61.6
79356;SHT31;68825;51.978;5.654;2023-07-13T01:52:06;19.2;61.0
79356;SHT31;68825;51.978;5.654;2023-07-13T01:54:35;19.2;61.5
79356;SHT31;68825;51.978;5.654;2023-07-13T01:57:04;19.2;61.7
79356;SHT31;68825;51.978;5.654;2023-07-13T01:59:33;19.2;61.7
79356;SHT31;68825;51.978;5.654;2023-07-13T02:02:01;19.1;61.8
79356;SHT31;68825;51.978;5.654;2023-07-13T02:04:30;19.1;61.9
79356;SHT31;68825;51.978;5.654;2023-07-13T02:07:00;19.1;61.7
79356;SHT31;68825;51.978;5.654;2023-07-13T02:09:29;19.1;62.3
79356;SHT31;68825;51.978;5.654;2023-07-13T02:11:58;19.0;61.8
79356;SHT31;68825;51.978;5.654;2023-07-13T02:14:26;19.0;62.0
79356;SHT31;68825;51.978;5.654;2023-07-13T02:16:55;19.0;62.0
79356;SHT31;68825;51.978;5.654;2023-07-13T02:19:24;19.0;62.1
79356;SHT31;68825;51.978;5.654;2023-07-13T02:21:52;18.9;62.2
79356;SHT31;68825;51.978;5.654;2023-07-13T02:24:21;18.9;62.3
79356;SHT31;68825;51.978;5.654;2023-07-13T02:26:49;18.9;62.5
79356;SHT31;68825;51.978;5.654;2023-07-13T02:29:18;18.9;62.2
79356;SHT31;68825;51.978;5.654;2023-07-13T02:31:47;18.8;62.5
79356;SHT31;68825;51.978;5.654;2023-07-13T02:34:15;18.8;62.8
79356;SHT31;68825;51.978;5.654;2023-07-13T02:36:44;18.8;62.8
79356;SHT31;68825;51.978;5.654;2023-07-13T02:39:13;18.8;63.2
79356;SHT31;68825;51.978;5.654;2023-07-13T02:41:42;18.8;63.1
79356;SHT31;68825;51.978;5.654;2023-07-13T02:44:12;18.8;63.2
79356;SHT31;68825;51.978;5.654;2023-07-13T02:46:40;18.8;63.6
79356;SHT31;68825;51.978;5.654;2023-07-13T02:49:10;18.7;64.2
79356;SHT31;68825;51.978;5.654;2023-07-13T02:51:38;18.7;63.6
79356;SHT31;68825;51.978;5.654;2023-07-13T02:54:08;18.7;63.4
79356;SHT31;68825;51.978;5.654;2023-07-13T02:56:38;18.7;63.7
79356;SHT31;68825;51.978;5.654;2023-07-13T02:59:07;18.6;64.0
79356;SHT31;68825;51.978;5.654;2023-07-13T03:01:35;18.6;64.4
79356;SHT31;68825;51.978;5.654;2023-07-13T03:04:06;18.6;64.3
79356;SHT31;68825;51.978;5.654;2023-07-13T03:06:35;18.6;64.1
79356;SHT31;68825;51.978;5.654;2023-07-13T03:09:06;18.5;64.8
79356;SHT31;68825;51.978;5.654;2023-07-13T03:11:36;18.5;64.5
79356;SHT31;68825;51.978;5.654;2023-07-13T03:14:05;18.5;64.5
79356;SHT31;68825;51.978;5.654;2023-07-13T03:16:33;18.5;64.9
79356;SHT31;68825;51.978;5.654;2023-07-13T03:19:02;18.5;65.0
79356;SHT31;68825;51.978;5.654;2023-07-13T03:21:31;18.5;65.3
79356;SHT31;68825;51.978;5.654;2023-07-13T03:24:00;18.4;65.1
79356;SHT31;68825;51.978;5.654;2023-07-13T03:26:29;18.4;65.2
79356;SHT31;68825;51.978;5.654;2023-07-13T03:28:58;18.4;65.4
79356;SHT31;68825;51.978;5.654;2023-07-13T03:31:29;18.4;65.4
79356;SHT31;68825;51.978;5.654;2023-07-13T03:33:58;18.4;65.2
79356;SHT31;68825;51.978;5.654;2023-07-13T03:36:28;18.4;65.5
79356;SHT31;68825;51.978;5.654;2023-07-13T03:38:59;18.3;65.4
79356;SHT31;68825;51.978;5.654;2023-07-13T03:41:28;18.3;65.7
79356;SHT31;68825;51.978;5.654;2023-07-13T03:43:58;18.3;65.8
79356;SHT31;68825;51.978;5.654;2023-07-13T03:46:26;18.3;66.2
79356;SHT31;68825;51.978;5.654;2023-07-13T03:48:57;18.3;66.3
79356;SHT31;68825;51.978;5.654;2023-07-13T03:51:26;18.3;66.2
79356;SHT31;68825;51.978;5.654;2023-07-13T03:53:56;18.2;66.0
79356;SHT31;68825;51.978;5.654;2023-07-13T03:56:25;18.2;66.0
79356;SHT31;68825;51.978;5.654;2023-07-13T03:58:54;18.2;66.4
79356;SHT31;68825;51.978;5.654;2023-07-13T04:01:24;18.2;66.3
79356;SHT31;68825;51.978;5.654;2023-07-13T04:03:53;18.2;66.5
79356;SHT31;68825;51.978;5.654;2023-07-13T04:06:25;18.2;66.4
79356;SHT31;68825;51.978;5.654;2023-07-13T04:08:56;18.2;66.5
79356;SHT31;68825;51.978;5.654;2023-07-13T04:11:27;18.2;66.8
79356;SHT31;68825;51.978;5.654;2023-07-13T04:13:59;18.1;67.1
79356;SHT31;68825;51.978;5.654;2023-07-13T04:16:29;18.1;67.0
79356;SHT31;68825;51.978;5.654;2023-07-13T04:18:57;18.1;66.7
79356;SHT31;68825;51.978;5.654;2023-07-13T04:21:28;18.1;66.7
79356;SHT31;68825;51.978;5.654;2023-07-13T04:23:58;18.1;66.8
79356;SHT31;68825;51.978;5.654;2023-07-13T04:26:27;18.2;66.8
79356;SHT31;68825;51.978;5.654;2023-07-13T04:28:56;18.2;67.0
79356;SHT31;68825;51.978;5.654;2023-07-13T04:31:25;18.2;67.0
79356;SHT31;68825;51.978;5.654;2023-07-13T04:33:57;18.2;66.9
79356;SHT31;68825;51.978;5.654;2023-07-13T04:36:26;18.2;67.0
79356;SHT31;68825;51.978;5.654;2023-07-13T04:38:54;18.2;67.7
79356;SHT31;68825;51.978;5.654;2023-07-13T04:41:23;18.2;67.4
79356;SHT31;68825;51.978;5.654;2023-07-13T04:43:52;18.2;67.7
79356;SHT31;68825;51.978;5.654;2023-07-13T04:46:21;18.2;67.6
79356;SHT31;68825;51.978;5.654;2023-07-13T04:48:50;18.3;67.6
79356;SHT31;68825;51.978;5.654;2023-07-13T04:51:21;18.3;67.4
79356;SHT31;68825;51.978;5.654;2023-07-13T04:53:50;18.3;67.8
79356;SHT31;68825;51.978;5.654;2023-07-13T04:56:18;18.3;67.8
79356;SHT31;68825;51.978;5.654;2023-07-13T04:58:48;18.3;67.6
79356;SHT31;68825;51.978;5.654;2023-07-13T05:01:16;18.3;67.7
79356;SHT31;68825;51.978;5.654;2023-07-13T05:03:46;18.4;67.8
79356;SHT31;68825;51.978;5.654;2023-07-13T05:06:15;18.4;67.8
79356;SHT31;68825;51.978;5.654;2023-07-13T05:08:43;18.4;67.5
79356;SHT31;68825;51.978;5.654;2023-07-13T05:11:12;18.5;67.7
79356;SHT31;68825;51.978;5.654;2023-07-13T05:13:41;18.5;68.1
79356;SHT31;68825;51.978;5.654;2023-07-13T05:16:11;18.5;67.6
79356;SHT31;68825;51.978;5.654;2023-07-13T05:18:40;18.6;67.6
79356;SHT31;68825;51.978;5.654;2023-07-13T05:21:12;18.6;67.4
79356;SHT31;68825;51.978;5.654;2023-07-13T05:23:41;18.6;68.0
79356;SHT31;68825;51.978;5.654;2023-07-13T05:26:11;18.6;67.7
79356;SHT31;68825;51.978;5.654;2023-07-13T05:28:40;18.7;68.3
79356;SHT31;68825;51.978;5.654;2023-07-13T05:31:09;18.7;68.0
79356;SHT31;68825;51.978;5.654;2023-07-13T05:33:38;18.7;67.4
79356;SHT31;68825;51.978;5.654;2023-07-13T05:36:07;18.7;67.6
79356;SHT31;68825;51.978;5.654;2023-07-13T05:38:36;18.8;67.6
79356;SHT31;68825;51.978;5.654;2023-07-13T05:41:04;18.8;68.0
79356;SHT31;68825;51.978;5.654;2023-07-13T05:43:33;18.8;67.8
79356;SHT31;68825;51.978;5.654;2023-07-13T05:46:03;18.8;67.9
79356;SHT31;68825;51.978;5.654;2023-07-13T05:48:32;18.9;68.0
79356;SHT31;68825;51.978;5.654;2023-07-13T05:51:01;18.9;67.8
79356;SHT31;68825;51.978;5.654;2023-07-13T05:53:29;19.0;67.8
79356;SHT31;68825;51.978;5.654;2023-07-13T05:55:58;19.0;67.9
79356;SHT31;68825;51.978;5.654;2023-07-13T05:58:29;19.0;68.3
79356;SHT31;68825;51.978;5.654;2023-07-13T06:01:02;19.1;67.9
79356;SHT31;68825;51.978;5.654;2023-07-13T06:03:32;19.1;68.1
79356;SHT31;68825;51.978;5.654;2023-07-13T06:06:01;19.1;68.2
79356;SHT31;68825;51.978;5.654;2023-07-13T06:08:30;19.1;68.7
79356;SHT31;68825;51.978;5.654;2023-07-13T06:11:04;19.1;68.6
79356;SHT31;68825;51.978;5.654;2023-07-13T06:13:35;19.2;68.5
79356;SHT31;68825;51.978;5.654;2023-07-13T06:16:04;19.2;68.8
79356;SHT31;68825;51.978;5.654;2023-07-13T06:18:36;19.2;69.7
79356;SHT31;68825;51.978;5.654;2023-07-13T06:21:08;19.2;69.5
79356;SHT31;68825;51.978;5.654;2023-07-13T06:23:37;19.3;69.2
79356;SHT31;68825;51.978;5.654;2023-07-13T06:26:07;19.3;69.4
79356;SHT31;68825;51.978;5.654;2023-07-13T06:28:37;19.3;69.1
79356;SHT31;68825;51.978;5.654;2023-07-13T06:31:08;19.4;69.1
79356;SHT31;68825;51.978;5.654;2023-07-13T06:33:37;19.4;68.8
79356;SHT31;68825;51.978;5.654;2023-07-13T06:36:08;19.4;69.1
79356;SHT31;68825;51.978;5.654;2023-07-13T06:38:37;19.5;69.0
79356;SHT31;68825;51.978;5.654;2023-07-13T06:41:07;19.5;68.7
79356;SHT31;68825;51.978;5.654;2023-07-13T06:43:37;19.6;69.1
79356;SHT31;68825;51.978;5.654;2023-07-13T06:46:06;19.6;69.1
79356;SHT31;68825;51.978;5.654;2023-07-13T06:48:35;19.7;68.9
79356;SHT31;68825;51.978;5.654;2023-07-13T06:51:03;19.8;68.7
79356;SHT31;68825;51.978;5.654;2023-07-13T06:53:32;19.9;68.5
79356;SHT31;68825;51.978;5.654;2023-07-13T06:56:01;19.9;67.6
79356;SHT31;68825;51.978;5.654;2023-07-13T06:58:29;20.0;68.6
79356;SHT31;68825;51.978;5.654;2023-07-13T07:00:58;20.0;67.2
79356;SHT31;68825;51.978;5.654;2023-07-13T07:03:27;20.0;67.2
79356;SHT31;68825;51.978;5.654;2023-07-13T07:05:59;20.1;67.0
79356;SHT31;68825;51.978;5.654;2023-07-13T07:08:28;20.1;67.7
79356;SHT31;68825;51.978;5.654;2023-07-13T07:10:57;20.1;67.1
79356;SHT31;68825;51.978;5.654;2023-07-13T07:13:25;20.2;67.8
79356;SHT31;68825;51.978;5.654;2023-07-13T07:15:56;20.2;67.1
79356;SHT31;68825;51.978;5.654;2023-07-13T07:18:26;20.2;66.8
79356;SHT31;68825;51.978;5.654;2023-07-13T07:20:55;20.2;66.5
79356;SHT31;68825;51.978;5.654;2023-07-13T07:23:23;20.3;66.4
79356;SHT31;68825;51.978;5.654;2023-07-13T07:25:52;20.3;66.3
79356;SHT31;68825;51.978;5.654;2023-07-13T07:28:21;20.3;66.3
79356;SHT31;68825;51.978;5.654;2023-07-13T07:30:53;20.4;66.1
79356;SHT31;68825;51.978;5.654;2023-07-13T07:33:22;20.4;66.4
79356;SHT31;68825;51.978;5.654;2023-07-13T07:35:53;20.4;66.7
79356;SHT31;68825;51.978;5.654;2023-07-13T07:38:21;20.5;66.2
79356;SHT31;68825;51.978;5.654;2023-07-13T07:40:51;20.5;65.7
79356;SHT31;68825;51.978;5.654;2023-07-13T07:43:19;20.6;65.6
79356;SHT31;68825;51.978;5.654;2023-07-13T07:45:48;20.6;65.8
79356;SHT31;68825;51.978;5.654;2023-07-13T07:48:17;20.6;65.4
79356;SHT31;68825;51.978;5.654;2023-07-13T07:50:45;20.6;65.4
79356;SHT31;68825;51.978;5.654;2023-07-13T07:53:16;20.7;65.5
79356;SHT31;68825;51.978;5.654;2023-07-13T07:55:44;20.7;65.1
79356;SHT31;68825;51.978;5.654;2023-07-13T07:58:15;20.8;64.6
79356;SHT31;68825;51.978;5.654;2023-07-13T08:00:44;20.8;64.2
79356;SHT31;68825;51.978;5.654;2023-07-13T08:03:13;20.8;64.6
79356;SHT31;68825;51.978;5.654;2023-07-13T08:05:43;20.8;64.5
79356;SHT31;68825;51.978;5.654;2023-07-13T08:08:12;20.9;64.8
79356;SHT31;68825;51.978;5.654;2023-07-13T08:10:42;20.9;64.6
79356;SHT31;68825;51.978;5.654;2023-07-13T08:13:11;21.0;65.4
79356;SHT31;68825;51.978;5.654;2023-07-13T08:15:40;21.0;64.5
79356;SHT31;68825;51.978;5.654;2023-07-13T08:18:09;21.1;63.7
79356;SHT31;68825;51.978;5.654;2023-07-13T08:20:39;21.2;63.4
79356;SHT31;68825;51.978;5.654;2023-07-13T08:23:10;21.2;62.8
79356;SHT31;68825;51.978;5.654;2023-07-13T08:25:38;21.2;62.8
79356;SHT31;68825;51.978;5.654;2023-07-13T08:28:07;21.3;62.6
79356;SHT31;68825;51.978;5.654;2023-07-13T08:30:37;21.3;62.4
79356;SHT31;68825;51.978;5.654;2023-07-13T08:33:06;21.2;62.7
79356;SHT31;68825;51.978;5.654;2023-07-13T08:35:35;21.2;63.6
79356;SHT31;68825;51.978;5.654;2023-07-13T08:38:05;21.2;63.0
79356;SHT31;68825;51.978;5.654;2023-07-13T08:40:34;21.2;63.5
79356;SHT31;68825;51.978;5.654;2023-07-13T08:43:02;21.2;63.0
79356;SHT31;68825;51.978;5.654;2023-07-13T08:45:41;21.3;62.4
79356;SHT31;68825;51.978;5.654;2023-07-13T08:48:20;21.3;62.3
79356;SHT31;68825;51.978;5.654;2023-07-13T08:50:55;21.4;61.2
79356;SHT31;68825;51.978;5.654;2023-07-13T08:53:30;21.5;59.0
79356;SHT31;68825;51.978;5.654;2023-07-13T08:56:02;21.5;59.0
79356;SHT31;68825;51.978;5.654;2023-07-13T08:58:31;21.6;58.6
79356;SHT31;68825;51.978;5.654;2023-07-13T09:01:09;21.6;58.8
79356;SHT31;68825;51.978;5.654;2023-07-13T09:03:50;21.7;58.8
79356;SHT31;68825;51.978;5.654;2023-07-13T09:06:31;21.7;59.1
79356;SHT31;68825;51.978;5.654;2023-07-13T09:09:05;21.8;59.5
79356;SHT31;68825;51.978;5.654;2023-07-13T09:11:49;21.8;61.0
79356;SHT31;68825;51.978;5.654;2023-07-13T09:14:32;21.8;59.0
79356;SHT31;68825;51.978;5.654;2023-07-13T09:17:04;21.7;59.2
79356;SHT31;68825;51.978;5.654;2023-07-13T09:19:38;21.7;58.4
79356;SHT31;68825;51.978;5.654;2023-07-13T09:22:16;21.7;59.2
79356;SHT31;68825;51.978;5.654;2023-07-13T09:24:52;21.6;60.2
79356;SHT31;68825;51.978;5.654;2023-07-13T09:27:29;21.6;61.3
79356;SHT31;68825;51.978;5.654;2023-07-13T09:30:02;21.5;62.9
79356;SHT31;68825;51.978;5.654;2023-07-13T09:32:35;21.5;62.4
79356;SHT31;68825;51.978;5.654;2023-07-13T09:35:11;21.4;62.7
79356;SHT31;68825;51.978;5.654;2023-07-13T09:37:40;21.4;63.5
79356;SHT31;68825;51.978;5.654;2023-07-13T09:40:20;21.3;64.5
79356;SHT31;68825;51.978;5.654;2023-07-13T09:42:53;21.3;64.6
79356;SHT31;68825;51.978;5.654;2023-07-13T09:45:29;21.2;65.2
79356;SHT31;68825;51.978;5.654;2023-07-13T09:48:04;21.2;65.8
79356;SHT31;68825;51.978;5.654;2023-07-13T09:50:36;21.2;64.4
79356;SHT31;68825;51.978;5.654;2023-07-13T09:53:15;21.2;64.4
79356;SHT31;68825;51.978;5.654;2023-07-13T09:55:47;21.2;62.7
79356;SHT31;68825;51.978;5.654;2023-07-13T09:58:18;21.3;63.2
79356;SHT31;68825;51.978;5.654;2023-07-13T10:00:57;21.3;63.1
79356;SHT31;68825;51.978;5.654;2023-07-13T10:03:27;21.4;62.2
79356;SHT31;68825;51.978;5.654;2023-07-13T10:06:09;21.5;63.4
79356;SHT31;68825;51.978;5.654;2023-07-13T10:08:35;21.6;64.1
79356;SHT31;68825;51.978;5.654;2023-07-13T10:11:12;21.7;62.3
79356;SHT31;68825;51.978;5.654;2023-07-13T10:13:44;21.8;60.3
79356;SHT31;68825;51.978;5.654;2023-07-13T10:16:15;21.9;62.1
79356;SHT31;68825;51.978;5.654;2023-07-13T10:18:47;21.9;61.3
79356;SHT31;68825;51.978;5.654;2023-07-13T10:21:19;21.9;61.2
79356;SHT31;68825;51.978;5.654;2023-07-13T10:23:52;22.0;61.3
79356;SHT31;68825;51.978;5.654;2023-07-13T10:26:27;22.0;61.2
79356;SHT31;68825;51.978;5.654;2023-07-13T10:29:03;22.0;60.9
79356;SHT31;68825;51.978;5.654;2023-07-13T10:31:36;22.0;61.2
79356;SHT31;68825;51.978;5.654;2023-07-13T10:34:08;22.0;61.6
79356;SHT31;68825;51.978;5.654;2023-07-13T10:36:40;22.1;61.4
79356;SHT31;68825;51.978;5.654;2023-07-13T10:39:16;22.1;60.7
79356;SHT31;68825;51.978;5.654;2023-07-13T10:41:49;22.2;59.7
79356;SHT31;68825;51.978;5.654;2023-07-13T10:44:24;22.3;56.5
79356;SHT31;68825;51.978;5.654;2023-07-13T10:47:01;22.3;56.8
79356;SHT31;68825;51.978;5.654;2023-07-13T10:49:35;22.4;55.5
79356;SHT31;68825;51.978;5.654;2023-07-13T10:52:20;22.4;55.4
79356;SHT31;68825;51.978;5.654;2023-07-13T10:54:47;22.5;55.8
79356;SHT31;68825;51.978;5.654;2023-07-13T10:57:19;22.5;56.6
79356;SHT31;68825;51.978;5.654;2023-07-13T11:00:10;22.6;57.0
79356;SHT31;68825;51.978;5.654;2023-07-13T11:02:26;22.7;58.4
79356;SHT31;68825;51.978;5.654;2023-07-13T11:04:56;22.7;60.2
79356;SHT31;68825;51.978;5.654;2023-07-13T11:07:29;22.7;59.3
79356;SHT31;68825;51.978;5.654;2023-07-13T11:10:00;22.6;58.8
79356;SHT31;68825;51.978;5.654;2023-07-13T11:12:51;22.6;57.4
79356;SHT31;68825;51.978;5.654;2023-07-13T11:15:39;22.7;57.4
79356;SHT31;68825;51.978;5.654;2023-07-13T11:18:22;22.7;57.4
79356;SHT31;68825;51.978;5.654;2023-07-13T11:20:52;22.8;58.2
79356;SHT31;68825;51.978;5.654;2023-07-13T11:23:29;22.8;57.8
79356;SHT31;68825;51.978;5.654;2023-07-13T11:26:00;22.9;58.1
79356;SHT31;68825;51.978;5.654;2023-07-13T11:28:32;23.0;57.1
79356;SHT31;68825;51.978;5.654;2023-07-13T11:31:12;23.1;58.1
79356;SHT31;68825;51.978;5.654;2023-07-13T11:33:59;23.3;55.6
79356;SHT31;68825;51.978;5.654;2023-07-13T11:36:43;23.4;56.8
79356;SHT31;68825;51.978;5.654;2023-07-13T11:39:21;23.5;55.4
79356;SHT31;68825;51.978;5.654;2023-07-13T11:41:55;23.6;55.3
79356;SHT31;68825;51.978;5.654;2023-07-13T11:44:28;23.7;55.3
79356;SHT31;68825;51.978;5.654;2023-07-13T11:46:59;23.7;55.4
79356;SHT31;68825;51.978;5.654;2023-07-13T11:49:32;23.7;55.6
79356;SHT31;68825;51.978;5.654;2023-07-13T11:52:01;23.7;55.3
79356;SHT31;68825;51.978;5.654;2023-07-13T11:54:31;23.7;54.7
79356;SHT31;68825;51.978;5.654;2023-07-13T11:57:19;23.7;55.7
79356;SHT31;68825;51.978;5.654;2023-07-13T11:59:40;23.7;54.0
79356;SHT31;68825;51.978;5.654;2023-07-13T12:02:18;23.7;54.0
79356;SHT31;68825;51.978;5.654;2023-07-13T12:04:50;23.7;51.5
79356;SHT31;68825;51.978;5.654;2023-07-13T12:07:21;23.8;52.7
79356;SHT31;68825;51.978;5.654;2023-07-13T12:09:50;23.9;53.0
79356;SHT31;68825;51.978;5.654;2023-07-13T12:12:22;23.9;53.7
79356;SHT31;68825;51.978;5.654;2023-07-13T12:14:52;24.0;51.7
79356;SHT31;68825;51.978;5.654;2023-07-13T12:17:23;24.1;52.5
79356;SHT31;68825;51.978;5.654;2023-07-13T12:19:53;24.1;51.8
79356;SHT31;68825;51.978;5.654;2023-07-13T12:22:22;24.1;54.0
79356;SHT31;68825;51.978;5.654;2023-07-13T12:24:53;24.1;52.7
79356;SHT31;68825;51.978;5.654;2023-07-13T12:27:25;24.2;52.5
79356;SHT31;68825;51.978;5.654;2023-07-13T12:29:59;24.2;50.9
79356;SHT31;68825;51.978;5.654;2023-07-13T12:32:28;24.3;51.9
79356;SHT31;68825;51.978;5.654;2023-07-13T12:35:06;24.4;51.0
79356;SHT31;68825;51.978;5.654;2023-07-13T12:37:35;24.5;51.7
79356;SHT31;68825;51.978;5.654;2023-07-13T12:40:05;24.5;49.8
79356;SHT31;68825;51.978;5.654;2023-07-13T12:42:41;24.6;48.9
79356;SHT31;68825;51.978;5.654;2023-07-13T12:45:19;24.7;48.1
79356;SHT31;68825;51.978;5.654;2023-07-13T12:47:53;24.8;48.4
79356;SHT31;68825;51.978;5.654;2023-07-13T12:50:33;24.9;46.9
79356;SHT31;68825;51.978;5.654;2023-07-13T12:53:05;25.0;47.6
79356;SHT31;68825;51.978;5.654;2023-07-13T12:55:45;25.0;48.3
79356;SHT31;68825;51.978;5.654;2023-07-13T12:58:25;25.0;47.1
79356;SHT31;68825;51.978;5.654;2023-07-13T13:00:54;25.0;46.9
79356;SHT31;68825;51.978;5.654;2023-07-13T13:03:28;25.0;46.7
79356;SHT31;68825;51.978;5.654;2023-07-13T13:06:02;25.1;46.6
79356;SHT31;68825;51.978;5.654;2023-07-13T13:08:33;25.1;47.6
79356;SHT31;68825;51.978;5.654;2023-07-13T13:11:03;25.2;46.7
79356;SHT31;68825;51.978;5.654;2023-07-13T13:13:31;25.2;47.8
79356;SHT31;68825;51.978;5.654;2023-07-13T13:16:08;25.2;45.0
79356;SHT31;68825;51.978;5.654;2023-07-13T13:18:40;25.2;44.9
79356;SHT31;68825;51.978;5.654;2023-07-13T13:21:09;25.2;46.4
79356;SHT31;68825;51.978;5.654;2023-07-13T13:23:38;25.2;46.8
79356;SHT31;68825;51.978;5.654;2023-07-13T13:26:12;25.2;46.3
79356;SHT31;68825;51.978;5.654;2023-07-13T13:28:42;25.2;46.6
79356;SHT31;68825;51.978;5.654;2023-07-13T13:31:12;25.2;46.6
79356;SHT31;68825;51.978;5.654;2023-07-13T13:33:44;25.2;48.0
79356;SHT31;68825;51.978;5.654;2023-07-13T13:36:17;25.3;47.9
79356;SHT31;68825;51.978;5.654;2023-07-13T13:38:48;25.4;46.7
79356;SHT31;68825;51.978;5.654;2023-07-13T13:41:17;25.4;46.5
79356;SHT31;68825;51.978;5.654;2023-07-13T13:43:46;25.5;47.0
79356;SHT31;68825;51.978;5.654;2023-07-13T13:46:18;25.6;45.6
79356;SHT31;68825;51.978;5.654;2023-07-13T13:48:48;25.6;44.9
79356;SHT31;68825;51.978;5.654;2023-07-13T13:51:19;25.7;47.0
79356;SHT31;68825;51.978;5.654;2023-07-13T13:53:48;25.7;45.1
79356;SHT31;68825;51.978;5.654;2023-07-13T13:56:19;25.8;47.1
79356;SHT31;68825;51.978;5.654;2023-07-13T13:58:48;25.8;45.2
79356;SHT31;68825;51.978;5.654;2023-07-13T14:01:20;25.8;45.5
79356;SHT31;68825;51.978;5.654;2023-07-13T14:03:49;25.8;45.1
79356;SHT31;68825;51.978;5.654;2023-07-13T14:06:19;25.7;44.5
79356;SHT31;68825;51.978;5.654;2023-07-13T14:08:48;25.6;44.0
79356;SHT31;68825;51.978;5.654;2023-07-13T14:11:19;25.5;45.1
79356;SHT31;68825;51.978;5.654;2023-07-13T14:13:52;25.4;45.4
79356;SHT31;68825;51.978;5.654;2023-07-13T14:16:22;25.4;44.2
79356;SHT31;68825;51.978;5.654;2023-07-13T14:18:56;25.5;44.9
79356;SHT31;68825;51.978;5.654;2023-07-13T14:21:28;25.5;44.5
79356;SHT31;68825;51.978;5.654;2023-07-13T14:23:57;25.6;45.9
79356;SHT31;68825;51.978;5.654;2023-07-13T14:26:27;25.6;45.5
79356;SHT31;68825;51.978;5.654;2023-07-13T14:28:57;25.6;45.9
79356;SHT31;68825;51.978;5.654;2023-07-13T14:31:27;25.6;44.4
79356;SHT31;68825;51.978;5.654;2023-07-13T14:33:57;25.6;44.1
79356;SHT31;68825;51.978;5.654;2023-07-13T14:36:29;25.6;45.3
79356;SHT31;68825;51.978;5.654;2023-07-13T14:39:04;25.6;44.8
79356;SHT31;68825;51.978;5.654;2023-07-13T14:41:34;25.5;45.3
79356;SHT31;68825;51.978;5.654;2023-07-13T14:44:07;25.5;46.0
79356;SHT31;68825;51.978;5.654;2023-07-13T14:46:37;25.5;46.2
79356;SHT31;68825;51.978;5.654;2023-07-13T14:49:11;25.4;45.2
79356;SHT31;68825;51.978;5.654;2023-07-13T14:51:41;25.4;44.5
79356;SHT31;68825;51.978;5.654;2023-07-13T14:54:09;25.4;46.0
79356;SHT31;68825;51.978;5.654;2023-07-13T14:56:38;25.3;43.8
79356;SHT31;68825;51.978;5.654;2023-07-13T14:59:07;25.3;43.5
79356;SHT31;68825;51.978;5.654;2023-07-13T15:01:37;25.2;43.6
79356;SHT31;68825;51.978;5.654;2023-07-13T15:04:08;25.2;44.1
79356;SHT31;68825;51.978;5.654;2023-07-13T15:06:54;25.1;43.8
79356;SHT31;68825;51.978;5.654;2023-07-13T15:09:25;25.1;44.7
79356;SHT31;68825;51.978;5.654;2023-07-13T15:11:57;25.0;44.0
79356;SHT31;68825;51.978;5.654;2023-07-13T15:14:26;25.0;45.3
79356;SHT31;68825;51.978;5.654;2023-07-13T15:16:56;25.0;44.2
79356;SHT31;68825;51.978;5.654;2023-07-13T15:19:25;25.0;43.8
79356;SHT31;68825;51.978;5.654;2023-07-13T15:21:56;25.0;45.6
79356;SHT31;68825;51.978;5.654;2023-07-13T15:24:26;25.0;44.5
79356;SHT31;68825;51.978;5.654;2023-07-13T15:26:55;25.0;44.4
79356;SHT31;68825;51.978;5.654;2023-07-13T15:29:23;25.0;45.2
79356;SHT31;68825;51.978;5.654;2023-07-13T15:31:52;25.0;44.9
79356;SHT31;68825;51.978;5.654;2023-07-13T15:34:25;25.0;44.2
79356;SHT31;68825;51.978;5.654;2023-07-13T15:36:54;25.0;44.7
79356;SHT31;68825;51.978;5.654;2023-07-13T15:39:23;24.9;44.7
79356;SHT31;68825;51.978;5.654;2023-07-13T15:41:52;24.9;46.0
79356;SHT31;68825;51.978;5.654;2023-07-13T15:44:27;24.9;46.4
79356;SHT31;68825;51.978;5.654;2023-07-13T15:46:57;24.9;47.1
79356;SHT31;68825;51.978;5.654;2023-07-13T15:49:26;24.9;46.8
79356;SHT31;68825;51.978;5.654;2023-07-13T15:51:55;25.0;48.3
79356;SHT31;68825;51.978;5.654;2023-07-13T15:54:24;25.2;45.2
79356;SHT31;68825;51.978;5.654;2023-07-13T15:56:55;25.4;46.3
79356;SHT31;68825;51.978;5.654;2023-07-13T15:59:28;25.5;46.6
79356;SHT31;68825;51.978;5.654;2023-07-13T16:01:57;25.6;45.4
79356;SHT31;68825;51.978;5.654;2023-07-13T16:04:26;25.8;43.8
79356;SHT31;68825;51.978;5.654;2023-07-13T16:06:54;25.9;43.2
79356;SHT31;68825;51.978;5.654;2023-07-13T16:09:24;26.0;42.7
79356;SHT31;68825;51.978;5.654;2023-07-13T16:11:54;26.0;42.7
79356;SHT31;68825;51.978;5.654;2023-07-13T16:14:24;26.0;43.4
79356;SHT31;68825;51.978;5.654;2023-07-13T16:16:53;26.0;42.9
79356;SHT31;68825;51.978;5.654;2023-07-13T16:19:22;26.0;42.0
79356;SHT31;68825;51.978;5.654;2023-07-13T16:21:55;25.9;41.8
79356;SHT31;68825;51.978;5.654;2023-07-13T16:24:26;25.8;40.8
79356;SHT31;68825;51.978;5.654;2023-07-13T16:26:57;25.7;41.4